createdAt,value
2023-05-19T00:01:52.381Z,99224.75
2023-05-19T00:04:19.329Z,99227.81
2023-05-19T00:06:51.030Z,99231.53
2023-05-19T00:09:18.028Z,99227.81
2023-05-19T00:11:45.064Z,99227.38
2023-05-19T00:14:12.102Z,99229.22
2023-05-19T00:16:39.161Z,99237.03
2023-05-19T00:19:08.822Z,99228.38
2023-05-19T00:21:36.500Z,99216.03
2023-05-19T00:24:03.550Z,99221.56
2023-05-19T00:26:30.015Z,99221.53
2023-05-19T00:28:56.849Z,99217.94
2023-05-19T00:31:23.284Z,99219.38
2023-05-19T00:33:50.155Z,99218.50
2023-05-19T00:36:16.722Z,99219.94
2023-05-19T00:38:43.236Z,99225.91
2023-05-19T00:41:09.778Z,99224.00
2023-05-19T00:43:36.479Z,99222.59
2023-05-19T00:46:03.818Z,99231.28
2023-05-19T00:48:30.419Z,99228.38
2023-05-19T00:50:58.428Z,99242.78
2023-05-19T00:53:25.076Z,99242.53
2023-05-19T00:55:52.036Z,99237.19
2023-05-19T00:58:19.144Z,99233.38
2023-05-19T01:00:45.838Z,99234.28
2023-05-19T01:03:13.876Z,99231.41
2023-05-19T01:05:43.487Z,99239.03
2023-05-19T01:08:10.499Z,99233.81
2023-05-19T01:10:37.526Z,99227.25
2023-05-19T01:13:04.916Z,99233.81
2023-05-19T01:15:40.215Z,99247.00
2023-05-19T01:18:16.440Z,99240.59
2023-05-19T01:20:48.853Z,99231.34
2023-05-19T01:23:49.737Z,99230.97
2023-05-19T01:26:24.775Z,99243.88
2023-05-19T01:29:18.916Z,99249.19
2023-05-19T01:31:46.572Z,99256.63
2023-05-19T01:34:14.915Z,99260.88
2023-05-19T01:36:42.493Z,99267.69
2023-05-19T01:39:09.448Z,99278.88
2023-05-19T01:41:37.153Z,99269.38
2023-05-19T01:44:04.394Z,99265.25
2023-05-19T01:46:31.054Z,99265.66
2023-05-19T01:48:58.315Z,99264.66
2023-05-19T01:51:25.090Z,99247.25
2023-05-19T01:53:51.691Z,99240.69
2023-05-19T01:56:34.144Z,99255.19
2023-05-19T01:59:09.521Z,99254.88
2023-05-19T02:01:49.324Z,99260.81
2023-05-19T02:04:31.940Z,99262.03
2023-05-19T02:07:43.467Z,99256.66
2023-05-19T02:10:24.569Z,99258.81
2023-05-19T02:12:53.989Z,99263.94
2023-05-19T02:15:30.549Z,99264.13
2023-05-19T02:17:59.167Z,99265.75
2023-05-19T02:20:26.031Z,99277.59
2023-05-19T02:22:53.009Z,99280.44
2023-05-19T02:25:20.110Z,99282.19
2023-05-19T02:27:46.744Z,99271.00
2023-05-19T02:30:13.352Z,99255.13
2023-05-19T02:32:40.516Z,99252.84
2023-05-19T02:35:07.457Z,99255.03
2023-05-19T02:37:34.001Z,99248.41
2023-05-19T02:40:00.744Z,99239.63
2023-05-19T02:42:27.502Z,99251.84
2023-05-19T02:44:55.050Z,99259.56
2023-05-19T02:47:21.837Z,99270.19
2023-05-19T02:49:48.650Z,99277.78
2023-05-19T02:52:15.257Z,99280.03
2023-05-19T02:54:41.753Z,99294.41
2023-05-19T02:57:08.252Z,99291.75
2023-05-19T02:59:34.756Z,99287.78
2023-05-19T03:02:02.438Z,99292.06
2023-05-19T03:04:29.827Z,99286.50
2023-05-19T03:06:56.814Z,99286.50
2023-05-19T03:09:23.743Z,99281.16
2023-05-19T03:11:50.763Z,99296.50
2023-05-19T03:14:17.603Z,99291.50
2023-05-19T03:16:44.222Z,99302.16
2023-05-19T03:19:10.804Z,99315.06
2023-05-19T03:21:37.567Z,99312.38
2023-05-19T03:24:04.347Z,99304.38
2023-05-19T03:26:30.805Z,99309.44
2023-05-19T03:28:57.875Z,99322.63
2023-05-19T03:31:24.812Z,99317.22
2023-05-19T03:33:51.645Z,99326.22
2023-05-19T03:36:19.627Z,99337.56
2023-05-19T03:38:46.100Z,99344.56
2023-05-19T03:41:13.767Z,99340.06
2023-05-19T03:43:40.276Z,99331.41
2023-05-19T03:46:07.061Z,99335.72
2023-05-19T03:48:33.696Z,99335.56
2023-05-19T03:51:00.406Z,99336.53
2023-05-19T03:53:27.029Z,99335.72
2023-05-19T03:55:53.680Z,99346.03
2023-05-19T03:58:20.210Z,99350.03
2023-05-19T04:00:47.223Z,99352.69
2023-05-19T04:03:13.894Z,99359.78
2023-05-19T04:05:40.577Z,99360.97
2023-05-19T04:08:08.043Z,99374.72
2023-05-19T04:10:34.738Z,99373.72
2023-05-19T04:13:01.372Z,99386.25
2023-05-19T04:15:28.332Z,99385.41
2023-05-19T04:17:56.329Z,99382.09
2023-05-19T04:20:23.008Z,99379.88
2023-05-19T04:22:49.531Z,99389.09
2023-05-19T04:25:16.363Z,99381.53
2023-05-19T04:27:42.964Z,99386.06
2023-05-19T04:30:10.036Z,99383.84
2023-05-19T04:32:36.669Z,99386.59
2023-05-19T04:35:03.962Z,99370.94
2023-05-19T04:37:31.965Z,99371.28
2023-05-19T04:39:58.592Z,99369.88
2023-05-19T04:42:25.301Z,99370.63
2023-05-19T04:44:52.022Z,99375.59
2023-05-19T04:47:18.715Z,99363.16
2023-05-19T04:49:45.331Z,99374.22
2023-05-19T04:52:11.879Z,99364.47
2023-05-19T04:54:39.175Z,99351.22
2023-05-19T04:57:06.122Z,99341.06
2023-05-19T04:59:32.777Z,99332.09
2023-05-19T05:01:59.480Z,99308.78
2023-05-19T05:04:26.116Z,99300.72
2023-05-19T05:06:52.908Z,99279.91
2023-05-19T05:09:19.731Z,99270.88
2023-05-19T05:11:46.518Z,99271.09
2023-05-19T05:14:13.428Z,99270.88
2023-05-19T05:16:40.406Z,99250.78
2023-05-19T05:19:07.486Z,99241.75
2023-05-19T05:21:34.447Z,99238.50
2023-05-19T05:24:01.675Z,99228.00
2023-05-19T05:26:31.297Z,99207.06
2023-05-19T05:28:57.810Z,99192.72
2023-05-19T05:31:24.350Z,99188.91
2023-05-19T05:33:51.515Z,99183.63
2023-05-19T05:36:18.149Z,99180.03
2023-05-19T05:38:44.917Z,99174.22
2023-05-19T05:41:11.684Z,99176.16
2023-05-19T05:43:38.579Z,99178.03
2023-05-19T05:46:05.569Z,99181.69
2023-05-19T05:48:32.591Z,99182.72
2023-05-19T05:50:59.823Z,99189.25
2023-05-19T05:53:30.691Z,99182.63
2023-05-19T05:55:57.612Z,99174.72
2023-05-19T05:58:24.221Z,99180.31
2023-05-19T06:00:53.739Z,99174.69
2023-05-19T06:03:20.668Z,99182.72
2023-05-19T06:05:47.337Z,99185.47
2023-05-19T06:08:15.384Z,99171.66
2023-05-19T06:10:41.998Z,99179.63
2023-05-19T06:13:08.697Z,99169.53
2023-05-19T06:15:35.406Z,99181.28
2023-05-19T06:18:02.221Z,99186.91
2023-05-19T06:20:29.691Z,99187.25
2023-05-19T06:22:56.835Z,99189.47
2023-05-19T06:25:23.639Z,99180.25
2023-05-19T06:27:50.240Z,99184.56
2023-05-19T06:30:16.982Z,99179.00
2023-05-19T06:32:43.659Z,99165.44
2023-05-19T06:35:10.494Z,99180.25
2023-05-19T06:37:37.259Z,99179.41
2023-05-19T06:40:04.120Z,99183.94
2023-05-19T06:42:30.612Z,99182.69
2023-05-19T06:44:57.219Z,99187.91
2023-05-19T06:47:24.147Z,99195.75
2023-05-19T06:49:51.881Z,99196.63
2023-05-19T06:52:18.668Z,99188.09
2023-05-19T06:54:45.801Z,99190.06
2023-05-19T06:57:12.375Z,99184.72
2023-05-19T06:59:39.377Z,99187.94
2023-05-19T07:02:06.117Z,99190.50
2023-05-19T07:04:32.694Z,99190.94
2023-05-19T07:06:59.230Z,99184.72
2023-05-19T07:09:26.241Z,99195.56
2023-05-19T07:11:52.957Z,99182.63
2023-05-19T07:14:19.557Z,99193.22
2023-05-19T07:16:46.083Z,99186.50
2023-05-19T07:19:13.032Z,99190.25
2023-05-19T07:21:39.697Z,99198.97
2023-05-19T07:24:06.908Z,99188.69
2023-05-19T07:26:33.615Z,99190.06
2023-05-19T07:29:00.208Z,99190.28
2023-05-19T07:31:27.151Z,99184.53
2023-05-19T07:33:54.819Z,99189.38
2023-05-19T07:36:21.603Z,99184.78
2023-05-19T07:38:48.415Z,99180.88
2023-05-19T07:41:15.567Z,99180.66
2023-05-19T07:43:42.691Z,99173.16
2023-05-19T07:46:09.439Z,99173.97
2023-05-19T07:48:36.001Z,99174.31
2023-05-19T07:51:02.690Z,99174.81
2023-05-19T07:53:29.311Z,99170.84
2023-05-19T07:55:58.722Z,99175.56
2023-05-19T07:58:25.926Z,99173.19
2023-05-19T08:00:52.750Z,99176.50
2023-05-19T08:03:19.439Z,99172.28
2023-05-19T08:05:46.473Z,99177.91
2023-05-19T08:08:13.071Z,99166.34
2023-05-19T08:10:41.064Z,99166.56
2023-05-19T08:13:07.999Z,99161.28
2023-05-19T08:15:35.131Z,99161.06
2023-05-19T08:18:01.739Z,99156.44
2023-05-19T08:20:28.936Z,99157.84
2023-05-19T08:22:55.569Z,99155.06
2023-05-19T08:25:22.373Z,99157.03
2023-05-19T08:27:49.138Z,99157.84
2023-05-19T08:30:16.078Z,99150.47
2023-05-19T08:32:42.775Z,99154.75
2023-05-19T08:35:09.991Z,99148.38
2023-05-19T08:37:36.493Z,99142.56
2023-05-19T08:40:04.038Z,99145.81
2023-05-19T08:42:30.733Z,99143.44
2023-05-19T08:44:57.341Z,99132.09
2023-05-19T08:47:24.158Z,99141.25
2023-05-19T08:49:53.266Z,99137.81
2023-05-19T08:52:31.163Z,99143.75
2023-05-19T08:55:35.321Z,99139.91
2023-05-19T08:58:04.170Z,99151.25
2023-05-19T09:00:31.577Z,99146.16
2023-05-19T09:03:05.943Z,99138.47
2023-05-19T09:05:39.081Z,99142.94
2023-05-19T09:08:05.916Z,99139.56
2023-05-19T09:10:32.446Z,99139.34
2023-05-19T09:12:59.550Z,99136.88
2023-05-19T09:15:28.062Z,99137.50
2023-05-19T09:18:25.162Z,99131.91
2023-05-19T09:20:56.678Z,99128.72
2023-05-19T09:23:23.572Z,99123.47
2023-05-19T09:25:51.802Z,99124.22
2023-05-19T09:28:31.339Z,99122.25
2023-05-19T09:31:09.915Z,99133.69
2023-05-19T09:33:41.530Z,99126.34
2023-05-19T09:36:09.745Z,99136.25
2023-05-19T09:38:37.943Z,99132.81
2023-05-19T09:41:08.025Z,99126.91
2023-05-19T09:43:38.173Z,99129.56
2023-05-19T09:46:06.841Z,99129.16
2023-05-19T09:48:37.191Z,99131.97
2023-05-19T09:51:08.335Z,99124.38
2023-05-19T09:53:35.386Z,99115.63
2023-05-19T09:56:03.745Z,99119.53
2023-05-19T09:58:34.260Z,99114.97
2023-05-19T10:01:02.032Z,99110.16
2023-05-19T10:03:29.276Z,99122.63
2023-05-19T10:06:01.161Z,99117.91
2023-05-19T10:08:29.278Z,99115.06
2023-05-19T10:10:56.817Z,99117.03
2023-05-19T10:13:24.508Z,99117.47
2023-05-19T10:18:23.326Z,99113.56
2023-05-19T10:20:50.380Z,99114.91
2023-05-19T10:23:19.052Z,99119.97
2023-05-19T10:25:47.378Z,99120.72
2023-05-19T10:28:18.165Z,99122.78
2023-05-19T10:30:47.671Z,99122.63
2023-05-19T10:33:22.241Z,99122.06
2023-05-19T10:36:13.407Z,99118.72
2023-05-19T10:38:47.665Z,99112.91
2023-05-19T10:41:19.887Z,99120.78
2023-05-19T10:43:55.616Z,99116.00
2023-05-19T10:46:26.796Z,99112.41
2023-05-19T10:48:54.034Z,99109.19
2023-05-19T10:51:21.085Z,99112.91
2023-05-19T10:53:47.661Z,99114.69
2023-05-19T10:56:28.796Z,99103.75
2023-05-19T10:58:55.470Z,99110.16
2023-05-19T11:01:22.699Z,99106.31
2023-05-19T11:03:54.223Z,99106.94
2023-05-19T11:06:21.930Z,99101.44
2023-05-19T11:08:55.535Z,99106.41
2023-05-19T11:11:23.433Z,99105.88
2023-05-19T11:13:54.524Z,99108.69
2023-05-19T11:16:32.783Z,99110.38
2023-05-19T11:19:02.152Z,99111.09
2023-05-19T11:21:42.722Z,99102.19
2023-05-19T11:24:10.227Z,99106.44
2023-05-19T11:26:40.930Z,99105.44
2023-05-19T11:29:08.843Z,99096.56
2023-05-19T11:31:37.170Z,99105.56
2023-05-19T11:34:04.652Z,99105.63
2023-05-19T11:36:32.397Z,99106.66
2023-05-19T11:39:02.795Z,99107.47
2023-05-19T11:41:29.790Z,99104.31
2023-05-19T11:43:56.513Z,99102.91
2023-05-19T11:46:23.110Z,99107.97
2023-05-19T11:48:49.723Z,99106.81
2023-05-19T11:51:17.357Z,99106.66
2023-05-19T11:53:44.286Z,99100.75
2023-05-19T11:56:12.952Z,99103.69
2023-05-19T11:58:40.151Z,99094.53
2023-05-19T12:01:06.961Z,99089.84
2023-05-19T12:03:34.953Z,99091.72
2023-05-19T12:06:04.135Z,99089.25
2023-05-19T12:08:31.426Z,99084.28
2023-05-19T12:11:01.939Z,99091.59
2023-05-19T12:13:29.005Z,99095.41
2023-05-19T12:16:00.569Z,99091.38
2023-05-19T12:18:30.053Z,99090.75
2023-05-19T12:20:57.168Z,99094.13
2023-05-19T12:23:24.508Z,99090.69
2023-05-19T12:25:56.474Z,99088.41
2023-05-19T12:28:23.103Z,99091.38
2023-05-19T12:30:51.077Z,99095.97
2023-05-19T12:33:18.919Z,99093.47
2023-05-19T12:35:46.304Z,99102.56
2023-05-19T12:38:15.281Z,99097.94
2023-05-19T12:40:46.051Z,99099.19
2023-05-19T12:43:22.482Z,99091.72
2023-05-19T12:45:52.051Z,99101.66
2023-05-19T12:48:22.077Z,99105.56
2023-05-19T12:50:48.761Z,99102.03
2023-05-19T12:53:15.564Z,99101.75
2023-05-19T12:55:44.282Z,99097.13
2023-05-19T12:58:16.182Z,99091.75
2023-05-19T13:00:45.491Z,99085.94
2023-05-19T13:03:15.396Z,99096.06
2023-05-19T13:05:44.356Z,99094.31
2023-05-19T13:08:13.774Z,99094.69
2023-05-19T13:10:42.241Z,99092.25
2023-05-19T13:13:10.872Z,99086.59
2023-05-19T13:15:41.010Z,99088.09
2023-05-19T13:18:10.148Z,99083.03
2023-05-19T13:20:37.607Z,99077.75
2023-05-19T13:23:04.931Z,99078.13
2023-05-19T13:25:33.714Z,99084.97
2023-05-19T13:28:01.488Z,99075.09
2023-05-19T13:30:28.563Z,99068.38
2023-05-19T13:32:57.500Z,99078.56
2023-05-19T13:35:24.595Z,99069.66
2023-05-19T13:37:53.873Z,99063.84
2023-05-19T13:40:21.157Z,99068.25
2023-05-19T13:42:47.789Z,99064.19
2023-05-19T13:45:14.416Z,99073.00
2023-05-19T13:47:44.939Z,99067.50
2023-05-19T13:50:14.924Z,99063.03
2023-05-19T13:52:41.783Z,99062.69
2023-05-19T13:55:10.665Z,99056.66
2023-05-19T13:57:37.359Z,99053.41
2023-05-19T14:00:14.157Z,99051.63
2023-05-19T14:03:01.704Z,99058.66
2023-05-19T14:05:32.538Z,99050.66
2023-05-19T14:07:59.215Z,99046.06
2023-05-19T14:10:26.165Z,99045.47
2023-05-19T14:15:25.426Z,99046.53
2023-05-19T14:17:52.507Z,99041.81
2023-05-19T14:20:19.650Z,99038.16
2023-05-19T14:22:46.584Z,99030.81
2023-05-19T14:25:18.689Z,99036.34
2023-05-19T14:27:46.628Z,99043.47
2023-05-19T14:30:13.899Z,99025.97
2023-05-19T14:32:40.828Z,99026.47
2023-05-19T14:35:07.938Z,99034.16
2023-05-19T14:37:38.003Z,99027.22
2023-05-19T14:40:06.424Z,99045.03
2023-05-19T14:42:33.070Z,99041.66
2023-05-19T14:45:02.076Z,99031.19
2023-05-19T14:47:28.630Z,99032.47
2023-05-19T14:49:55.472Z,99030.00
2023-05-19T14:52:22.316Z,99032.16
2023-05-19T14:54:48.923Z,99029.72
2023-05-19T14:57:15.614Z,99040.41
2023-05-19T14:59:42.313Z,99037.91
2023-05-19T15:02:09.027Z,99043.25
2023-05-19T15:04:36.033Z,99034.84
2023-05-19T15:09:32.212Z,99040.59
2023-05-19T15:12:01.150Z,99044.53
2023-05-19T15:14:28.634Z,99029.66
2023-05-19T15:16:57.356Z,99033.75
2023-05-19T15:19:24.673Z,99030.97
2023-05-19T15:21:52.214Z,99039.13
2023-05-19T15:24:23.908Z,99035.03
2023-05-19T15:26:52.926Z,99029.03
2023-05-19T15:29:19.799Z,99014.28
2023-05-19T15:31:47.467Z,99025.34
2023-05-19T15:34:14.458Z,99018.31
2023-05-19T15:36:47.084Z,99021.75
2023-05-19T15:39:18.001Z,99014.44
2023-05-19T15:41:46.924Z,99013.38
2023-05-19T15:44:21.437Z,99005.22
2023-05-19T15:46:51.474Z,99001.59
2023-05-19T15:49:18.473Z,98999.50
2023-05-19T15:51:45.261Z,98991.72
2023-05-19T15:54:11.871Z,98991.63
2023-05-19T15:56:39.198Z,98990.81
2023-05-19T15:59:05.874Z,98988.00
2023-05-19T16:01:33.135Z,98982.16
2023-05-19T16:03:59.808Z,98987.41
2023-05-19T16:06:26.523Z,98981.06
2023-05-19T16:08:53.237Z,98981.00
2023-05-19T16:11:20.050Z,98981.13
2023-05-19T16:13:47.252Z,98981.22
2023-05-19T16:16:14.039Z,98967.63
2023-05-19T16:18:40.805Z,98962.44
2023-05-19T16:21:07.615Z,98958.34
2023-05-19T16:23:34.530Z,98961.50
2023-05-19T16:26:01.090Z,98957.75
2023-05-19T16:28:28.373Z,98959.38
2023-05-19T16:30:58.837Z,98952.66
2023-05-19T16:33:26.737Z,98951.50
2023-05-19T16:35:53.568Z,98951.19
2023-05-19T16:38:20.552Z,98951.91
2023-05-19T16:40:47.652Z,98954.69
2023-05-19T16:43:14.651Z,98949.56
2023-05-19T16:45:44.933Z,98949.78
2023-05-19T16:48:11.617Z,98942.91
2023-05-19T16:50:39.300Z,98944.09
2023-05-19T16:53:06.664Z,98946.97
2023-05-19T16:55:34.437Z,98938.06
2023-05-19T16:58:01.320Z,98944.91
2023-05-19T17:00:27.997Z,98948.19
2023-05-19T17:02:54.984Z,98950.66
2023-05-19T17:05:21.856Z,98945.25
2023-05-19T17:07:49.050Z,98941.88
2023-05-19T17:10:17.275Z,98941.25
2023-05-19T17:12:44.136Z,98938.31
2023-05-19T17:15:11.118Z,98936.88
2023-05-19T17:17:37.937Z,98937.13
2023-05-19T17:20:05.508Z,98942.50
2023-05-19T17:22:32.298Z,98939.50
2023-05-19T17:24:58.805Z,98934.06
2023-05-19T17:27:25.557Z,98942.44
2023-05-19T17:29:52.375Z,98936.75
2023-05-19T17:32:19.119Z,98936.41
2023-05-19T17:34:46.359Z,98932.66
2023-05-19T17:37:12.876Z,98932.41
2023-05-19T17:39:40.610Z,98935.94
2023-05-19T17:42:07.950Z,98929.34
2023-05-19T17:44:34.532Z,98928.38
2023-05-19T17:47:01.075Z,98930.09
2023-05-19T17:49:27.713Z,98932.66
2023-05-19T17:51:54.651Z,98931.91
2023-05-19T17:54:21.438Z,98936.94
2023-05-19T17:56:50.078Z,98930.00
2023-05-19T17:59:17.310Z,98928.66
2023-05-19T18:01:54.573Z,98934.25
2023-05-19T18:04:22.331Z,98934.34
2023-05-19T18:06:51.533Z,98938.53
2023-05-19T18:09:20.008Z,98942.75
2023-05-19T18:11:46.921Z,98948.34
2023-05-19T18:14:20.335Z,98945.28
2023-05-19T18:19:34.993Z,98959.88
2023-05-19T18:22:02.104Z,98945.63
2023-05-19T18:24:28.813Z,98956.03
2023-05-19T18:26:55.301Z,98958.78
2023-05-19T18:29:22.062Z,98978.50
2023-05-19T18:31:49.217Z,98985.00
2023-05-19T18:34:16.433Z,99008.25
2023-05-19T18:36:42.907Z,99017.84
2023-05-19T18:39:09.845Z,99045.22
2023-05-19T18:41:37.383Z,99051.88
2023-05-19T18:44:04.509Z,99067.66
2023-05-19T18:46:31.619Z,99105.97
2023-05-19T18:48:58.399Z,99137.63
2023-05-19T18:51:25.602Z,99151.13
2023-05-19T18:53:52.532Z,99151.34
2023-05-19T18:56:26.223Z,99179.66
2023-05-19T18:58:56.729Z,99184.84
2023-05-19T19:01:23.772Z,99183.63
2023-05-19T19:03:50.535Z,99210.84
2023-05-19T19:06:17.574Z,99218.03
2023-05-19T19:08:45.235Z,99231.47
2023-05-19T19:11:12.089Z,99245.09
2023-05-19T19:13:39.402Z,99247.16
2023-05-19T19:16:06.780Z,99242.19
2023-05-19T19:18:33.825Z,99259.13
2023-05-19T19:23:45.666Z,99259.94
2023-05-19T19:26:14.471Z,99267.78
2023-05-19T19:28:41.457Z,99286.75
2023-05-19T19:31:08.128Z,99285.34
2023-05-19T19:33:34.742Z,99298.31
2023-05-19T19:36:04.585Z,99290.06
2023-05-19T19:38:31.300Z,99273.53
2023-05-19T19:40:58.827Z,99294.75
2023-05-19T19:43:26.370Z,99312.28
2023-05-19T19:46:03.686Z,99297.22
2023-05-19T19:48:31.032Z,99288.34
2023-05-19T19:50:58.506Z,99287.53
2023-05-19T19:53:25.302Z,99299.28
2023-05-19T19:56:02.879Z,99301.16
2023-05-19T19:58:30.079Z,99303.19
2023-05-19T20:01:02.556Z,99311.44
2023-05-19T20:03:29.745Z,99331.66
2023-05-19T20:05:58.075Z,99326.28
2023-05-19T20:08:26.053Z,99355.38
2023-05-19T20:10:52.736Z,99359.69
2023-05-19T20:13:19.661Z,99354.16
2023-05-19T20:15:47.252Z,99346.09
2023-05-19T20:18:14.167Z,99345.06
2023-05-19T20:20:41.201Z,99339.50
2023-05-19T20:23:10.057Z,99374.78
2023-05-19T20:25:42.547Z,99396.81
2023-05-19T20:28:20.422Z,99419.06
2023-05-19T20:30:47.816Z,99423.81
2023-05-19T20:33:14.632Z,99423.59
2023-05-19T20:35:41.067Z,99424.22
2023-05-19T20:38:07.794Z,99422.78
2023-05-19T20:40:36.882Z,99418.88
2023-05-19T20:43:05.418Z,99425.88
2023-05-19T20:45:32.138Z,99430.59
2023-05-19T20:47:59.365Z,99425.22
2023-05-19T20:50:26.100Z,99420.09
2023-05-19T20:52:56.923Z,99428.31
2023-05-19T20:55:23.880Z,99422.13
2023-05-19T20:57:50.534Z,99425.19
2023-05-19T21:00:17.479Z,99428.28
2023-05-19T21:02:47.718Z,99437.34
2023-05-19T21:05:14.502Z,99452.41
2023-05-19T21:07:41.266Z,99448.69
2023-05-19T21:10:08.353Z,99461.03
2023-05-19T21:12:34.937Z,99442.06
2023-05-19T21:15:02.287Z,99443.09
2023-05-19T21:17:29.243Z,99448.22
2023-05-19T21:19:58.489Z,99441.47
2023-05-19T21:22:26.476Z,99437.94
2023-05-19T21:24:54.766Z,99425.94
2023-05-19T21:27:23.079Z,99411.53
2023-05-19T21:29:53.812Z,99419.75
2023-05-19T21:32:20.619Z,99426.53
2023-05-19T21:34:47.344Z,99423.88
2023-05-19T21:37:14.232Z,99434.75
2023-05-19T21:39:40.960Z,99474.16
2023-05-19T21:42:08.464Z,99508.50
2023-05-19T21:44:35.374Z,99536.63
2023-05-19T21:47:02.351Z,99555.13
2023-05-19T21:49:28.854Z,99568.09
2023-05-19T21:51:55.409Z,99567.44
2023-05-19T21:54:22.240Z,99577.50
2023-05-19T21:56:48.815Z,99564.38
2023-05-19T21:59:15.610Z,99561.44
2023-05-19T22:01:42.170Z,99564.88
2023-05-19T22:04:09.176Z,99568.56
2023-05-19T22:06:36.053Z,99581.31
2023-05-19T22:09:03.083Z,99588.06
2023-05-19T22:11:31.436Z,99585.53
2023-05-19T22:13:58.092Z,99601.81
2023-05-19T22:16:27.513Z,99603.22
2023-05-19T22:18:55.468Z,99606.88
2023-05-19T22:21:22.330Z,99625.84
2023-05-19T22:23:48.922Z,99624.81
2023-05-19T22:26:15.350Z,99614.31
2023-05-19T22:28:43.380Z,99604.66
2023-05-19T22:31:10.190Z,99593.31
2023-05-19T22:33:39.090Z,99597.19
2023-05-19T22:36:05.805Z,99584.09
2023-05-19T22:38:32.364Z,99574.59
2023-05-19T22:40:59.256Z,99572.94
2023-05-19T22:43:25.904Z,99575.41
2023-05-19T22:45:52.451Z,99609.13
2023-05-19T22:48:19.042Z,99632.22
2023-05-19T22:50:46.194Z,99633.22
2023-05-19T22:53:12.673Z,99645.41
2023-05-19T22:55:39.160Z,99644.38
2023-05-19T22:58:06.504Z,99649.13
2023-05-19T23:00:33.214Z,99636.72
2023-05-19T23:02:59.944Z,99636.72
2023-05-19T23:05:26.627Z,99629.53
2023-05-19T23:07:53.338Z,99630.53
2023-05-19T23:10:19.928Z,99624.34
2023-05-19T23:12:46.441Z,99620.03
2023-05-19T23:15:13.141Z,99609.13
2023-05-19T23:17:39.879Z,99581.50
2023-05-19T23:20:06.992Z,99578.00
2023-05-19T23:22:34.995Z,99576.97
2023-05-19T23:25:02.206Z,99573.47
2023-05-19T23:27:30.761Z,99572.81
2023-05-19T23:29:57.619Z,99571.63
2023-05-19T23:32:24.176Z,99593.63
2023-05-19T23:34:53.323Z,99615.59
2023-05-19T23:37:19.848Z,99629.53
2023-05-19T23:39:46.666Z,99643.94
2023-05-19T23:42:14.136Z,99655.00
2023-05-19T23:44:40.891Z,99662.88
2023-05-19T23:47:07.825Z,99664.25
2023-05-19T23:49:34.434Z,99651.03
2023-05-19T23:52:01.010Z,99641.72
2023-05-19T23:54:27.617Z,99624.38
2023-05-19T23:56:54.542Z,99620.84
2023-05-19T23:59:21.058Z,99630.56
